createdAt,value
2023-01-29T00:02:15.547Z,12.15
2023-01-29T00:04:42.579Z,12.25
2023-01-29T00:07:09.884Z,12.07
2023-01-29T00:09:37.078Z,12.32
2023-01-29T00:12:04.519Z,12.07
2023-01-29T00:14:31.503Z,11.95
2023-01-29T00:16:58.896Z,12.40
2023-01-29T00:19:25.925Z,12.40
2023-01-29T00:21:53.208Z,12.45
2023-01-29T00:24:20.330Z,12.55
2023-01-29T00:26:50.017Z,11.90
2023-01-29T00:29:17.842Z,11.20
2023-01-29T00:31:46.072Z,12.00
2023-01-29T00:34:13.481Z,11.18
2023-01-29T00:36:40.742Z,11.38
2023-01-29T00:39:10.671Z,9.90
2023-01-29T00:41:57.224Z,9.63
2023-01-29T00:44:42.894Z,8.02
2023-01-29T00:47:29.035Z,6.60
2023-01-29T00:49:56.742Z,6.50
2023-01-29T00:52:24.619Z,6.25
2023-01-29T00:55:02.366Z,5.93
2023-01-29T00:57:32.135Z,5.70
2023-01-29T00:59:59.722Z,5.18
2023-01-29T01:02:47.193Z,6.00
2023-01-29T01:05:18.236Z,5.28
2023-01-29T01:07:53.028Z,5.33
2023-01-29T01:10:25.610Z,5.53
2023-01-29T01:13:06.256Z,4.88
2023-01-29T01:15:39.835Z,4.88
2023-01-29T01:18:07.567Z,4.05
2023-01-29T01:20:36.269Z,4.72
2023-01-29T01:23:04.097Z,5.57
2023-01-29T01:25:31.273Z,6.10
2023-01-29T01:28:02.773Z,5.53
2023-01-29T01:30:30.449Z,5.77
2023-01-29T01:32:58.056Z,5.18
2023-01-29T01:35:25.131Z,5.90
2023-01-29T01:37:52.576Z,5.60
2023-01-29T01:40:25.712Z,6.47
2023-01-29T01:42:59.872Z,6.75
2023-01-29T01:45:33.748Z,5.53
2023-01-29T01:48:11.296Z,5.55
2023-01-29T01:51:03.654Z,6.50
2023-01-29T01:54:07.243Z,6.97
2023-01-29T01:59:15.839Z,6.57
2023-01-29T02:01:50.083Z,6.88
2023-01-29T02:04:41.783Z,6.85
2023-01-29T02:07:33.666Z,6.40
2023-01-29T02:10:09.451Z,7.87
2023-01-29T02:12:38.399Z,6.72
2023-01-29T02:15:06.849Z,6.60
2023-01-29T02:17:34.053Z,5.97
2023-01-29T02:20:24.648Z,6.10
2023-01-29T02:26:02.562Z,5.30
2023-01-29T02:28:45.631Z,5.28
2023-01-29T02:31:44.279Z,5.43
2023-01-29T02:34:25.966Z,5.45
2023-01-29T02:37:10.407Z,4.45
2023-01-29T02:39:51.789Z,4.70
2023-01-29T02:42:39.108Z,4.85
2023-01-29T02:45:18.151Z,5.25
2023-01-29T02:47:58.798Z,5.32
2023-01-29T02:50:44.784Z,5.50
2023-01-29T02:53:19.117Z,5.53
2023-01-29T02:55:59.838Z,5.70
2023-01-29T02:58:50.999Z,5.68
2023-01-29T03:01:31.383Z,6.28
2023-01-29T03:04:14.030Z,6.32
2023-01-29T03:06:58.354Z,5.97
2023-01-29T03:09:31.653Z,6.22
2023-01-29T03:12:28.435Z,6.70
2023-01-29T03:15:12.118Z,6.28
2023-01-29T03:17:58.824Z,5.60
2023-01-29T03:20:38.557Z,5.45
2023-01-29T03:23:23.789Z,5.90
2023-01-29T03:26:14.692Z,5.60
2023-01-29T03:29:03.785Z,5.68
2023-01-29T03:31:55.072Z,6.05
2023-01-29T03:34:34.944Z,6.30
2023-01-29T03:37:11.093Z,6.20
2023-01-29T03:39:38.192Z,6.20
2023-01-29T03:42:41.394Z,5.95
2023-01-29T03:45:46.970Z,6.72
2023-01-29T03:48:40.686Z,6.10
2023-01-29T03:51:51.087Z,5.82
2023-01-29T03:54:52.962Z,6.40
2023-01-29T03:57:37.973Z,5.68
2023-01-29T04:00:12.397Z,6.45
2023-01-29T04:03:20.778Z,5.88
2023-01-29T04:06:24.090Z,6.05
2023-01-29T04:09:45.524Z,5.45
2023-01-29T04:12:20.446Z,5.78
2023-01-29T04:14:51.536Z,6.55
2023-01-29T04:17:27.618Z,6.25
2023-01-29T04:20:04.532Z,6.25
2023-01-29T04:22:39.873Z,6.28
2023-01-29T04:25:19.385Z,6.38
2023-01-29T04:28:08.643Z,6.63
2023-01-29T04:31:08.577Z,6.75
2023-01-29T04:34:02.180Z,6.13
2023-01-29T04:37:07.811Z,6.80
2023-01-29T04:39:48.170Z,5.97
2023-01-29T04:42:42.795Z,6.38
2023-01-29T04:45:59.104Z,5.90
2023-01-29T04:49:11.257Z,5.57
2023-01-29T04:52:00.585Z,6.00
2023-01-29T04:54:54.705Z,5.97
2023-01-29T04:57:34.610Z,5.85
2023-01-29T05:00:20.177Z,5.30
2023-01-29T05:02:49.249Z,4.68
2023-01-29T05:05:20.366Z,5.13
2023-01-29T05:07:49.595Z,4.47
2023-01-29T05:10:21.301Z,4.03
2023-01-29T05:12:58.767Z,2.97
2023-01-29T05:15:37.833Z,3.83
2023-01-29T05:18:08.966Z,4.32
2023-01-29T05:20:41.028Z,4.57
2023-01-29T05:23:17.760Z,3.38
2023-01-29T05:25:46.264Z,4.28
2023-01-29T05:28:17.231Z,4.20
2023-01-29T05:30:51.604Z,4.30
2023-01-29T05:33:29.883Z,4.38
2023-01-29T05:35:59.966Z,4.70
2023-01-29T05:38:27.275Z,4.78
2023-01-29T05:40:54.764Z,4.75
2023-01-29T05:43:25.090Z,4.60
2023-01-29T05:45:58.114Z,4.80
2023-01-29T05:48:28.692Z,4.50
2023-01-29T05:51:04.421Z,4.90
2023-01-29T05:53:32.812Z,4.55
2023-01-29T05:56:05.056Z,4.95
2023-01-29T06:01:14.383Z,4.10
2023-01-29T06:03:41.728Z,4.63
2023-01-29T06:06:09.118Z,4.60
2023-01-29T06:08:37.070Z,4.57
2023-01-29T06:11:04.631Z,4.22
2023-01-29T06:13:31.859Z,4.43
2023-01-29T06:15:58.980Z,4.38
2023-01-29T06:18:26.653Z,3.90
2023-01-29T06:20:53.708Z,3.55
2023-01-29T06:23:21.043Z,4.13
2023-01-29T06:25:47.994Z,4.22
2023-01-29T06:28:15.221Z,3.60
2023-01-29T06:30:42.434Z,3.70
2023-01-29T06:33:09.666Z,4.15
2023-01-29T06:35:36.650Z,3.88
2023-01-29T06:38:03.902Z,3.70
2023-01-29T06:40:30.847Z,3.53
2023-01-29T06:43:00.943Z,2.97
2023-01-29T06:45:28.013Z,3.28
2023-01-29T06:47:56.526Z,3.17
2023-01-29T06:50:23.492Z,3.20
2023-01-29T06:52:50.699Z,2.95
2023-01-29T06:55:17.704Z,2.97
2023-01-29T06:57:44.890Z,3.72
2023-01-29T07:00:13.003Z,3.50
2023-01-29T07:02:40.295Z,3.53
2023-01-29T07:05:07.776Z,3.30
2023-01-29T07:07:36.787Z,3.42
2023-01-29T07:10:04.255Z,3.13
2023-01-29T07:12:31.556Z,3.15
2023-01-29T07:14:58.532Z,3.25
2023-01-29T07:17:25.743Z,3.72
2023-01-29T07:19:52.663Z,3.78
2023-01-29T07:22:20.127Z,3.60
2023-01-29T07:24:48.332Z,3.47
2023-01-29T07:27:15.621Z,3.80
2023-01-29T07:29:42.627Z,3.40
2023-01-29T07:32:09.848Z,3.80
2023-01-29T07:34:36.892Z,3.53
2023-01-29T07:37:06.026Z,3.55
2023-01-29T07:39:33.250Z,4.10
2023-01-29T07:42:00.522Z,3.88
2023-01-29T07:44:28.998Z,4.00
2023-01-29T07:46:56.208Z,4.00
2023-01-29T07:49:23.125Z,3.95
2023-01-29T07:51:50.463Z,3.80
2023-01-29T07:54:17.424Z,3.92
2023-01-29T07:56:44.578Z,4.50
2023-01-29T07:59:11.647Z,3.55
2023-01-29T08:01:38.954Z,3.50
2023-01-29T08:04:05.869Z,3.55
2023-01-29T08:06:33.476Z,3.78
2023-01-29T08:09:00.523Z,3.75
2023-01-29T08:11:27.764Z,3.72
2023-01-29T08:13:55.255Z,4.18
2023-01-29T08:16:22.843Z,3.85
2023-01-29T08:18:50.133Z,4.25
2023-01-29T08:21:17.430Z,3.53
2023-01-29T08:23:44.486Z,4.00
2023-01-29T08:26:11.740Z,3.60
2023-01-29T08:28:38.825Z,3.85
2023-01-29T08:31:20.473Z,4.20
2023-01-29T08:33:47.970Z,3.97
2023-01-29T08:36:15.733Z,3.95
2023-01-29T08:38:42.818Z,3.95
2023-01-29T08:41:10.076Z,4.00
2023-01-29T08:43:37.269Z,3.60
2023-01-29T08:46:06.896Z,3.53
2023-01-29T08:48:34.301Z,4.07
2023-01-29T08:51:02.894Z,3.90
2023-01-29T08:53:30.972Z,3.08
2023-01-29T08:55:58.323Z,3.60
2023-01-29T08:58:25.360Z,4.03
2023-01-29T09:00:52.772Z,3.38
2023-01-29T09:03:19.865Z,3.75
2023-01-29T09:05:47.067Z,4.03
2023-01-29T09:08:15.380Z,3.83
2023-01-29T09:10:43.127Z,4.45
2023-01-29T09:13:10.335Z,4.43
2023-01-29T09:15:37.598Z,4.30
2023-01-29T09:18:05.491Z,4.72
2023-01-29T09:20:33.396Z,4.68
2023-01-29T09:23:09.544Z,4.43
2023-01-29T09:25:37.606Z,4.38
2023-01-29T09:28:06.146Z,4.53
2023-01-29T09:30:34.642Z,4.80
2023-01-29T09:33:02.358Z,4.50
2023-01-29T09:35:29.653Z,4.07
2023-01-29T09:37:56.938Z,4.25
2023-01-29T09:40:38.324Z,3.95
2023-01-29T09:43:20.367Z,3.75
2023-01-29T09:46:07.725Z,3.42
2023-01-29T09:48:37.248Z,3.83
2023-01-29T09:51:16.566Z,3.85
2023-01-29T09:53:57.668Z,4.07
2023-01-29T09:56:28.849Z,3.92
2023-01-29T09:59:01.677Z,4.22
2023-01-29T10:01:50.702Z,4.03
2023-01-29T10:05:04.743Z,4.40
2023-01-29T10:08:00.536Z,4.28
2023-01-29T10:10:50.570Z,5.68
2023-01-29T10:13:45.178Z,5.32
2023-01-29T10:16:42.023Z,5.25
2023-01-29T10:20:02.866Z,6.05
2023-01-29T10:23:20.613Z,5.95
2023-01-29T10:25:49.677Z,6.38
2023-01-29T10:28:43.280Z,7.03
2023-01-29T10:31:32.636Z,6.35
2023-01-29T10:34:41.060Z,6.57
2023-01-29T10:37:40.040Z,6.53
2023-01-29T10:40:29.305Z,7.13
2023-01-29T10:43:12.899Z,7.22
2023-01-29T10:46:27.099Z,6.80
2023-01-29T10:49:37.671Z,7.35
2023-01-29T10:52:41.919Z,7.03
2023-01-29T10:55:35.921Z,6.95
2023-01-29T10:58:38.089Z,6.80
2023-01-29T11:01:05.425Z,7.20
2023-01-29T11:03:34.265Z,6.82
2023-01-29T11:06:24.051Z,7.15
2023-01-29T11:12:20.182Z,7.05
2023-01-29T11:14:53.213Z,6.88
2023-01-29T11:17:25.622Z,6.45
2023-01-29T11:19:57.880Z,6.55
2023-01-29T11:22:30.297Z,5.85
2023-01-29T11:25:20.627Z,5.28
2023-01-29T11:27:57.045Z,4.75
2023-01-29T11:30:30.603Z,4.90
2023-01-29T11:33:18.255Z,4.75
2023-01-29T11:35:45.795Z,4.93
2023-01-29T11:38:16.085Z,5.05
2023-01-29T11:40:44.165Z,5.20
2023-01-29T11:43:29.894Z,5.47
2023-01-29T11:46:05.303Z,4.93
2023-01-29T11:48:45.361Z,5.20
2023-01-29T11:51:24.527Z,5.10
2023-01-29T11:54:01.807Z,5.50
2023-01-29T11:56:46.777Z,5.15
2023-01-29T11:59:44.254Z,5.18
2023-01-29T12:02:28.173Z,4.85
2023-01-29T12:05:04.524Z,5.40
2023-01-29T12:07:32.818Z,5.22
2023-01-29T12:10:00.821Z,5.43
2023-01-29T12:12:42.811Z,4.63
2023-01-29T12:15:21.138Z,4.18
2023-01-29T12:18:01.071Z,5.03
2023-01-29T12:20:42.439Z,4.55
2023-01-29T12:23:40.686Z,4.45
2023-01-29T12:26:21.496Z,4.75
2023-01-29T12:29:23.301Z,4.72
2023-01-29T12:32:05.827Z,4.97
2023-01-29T12:34:55.443Z,3.15
2023-01-29T12:38:00.906Z,5.07
2023-01-29T12:40:46.037Z,4.60
2023-01-29T12:43:19.430Z,5.25
2023-01-29T12:45:54.184Z,4.10
2023-01-29T12:48:31.195Z,4.47
2023-01-29T12:51:09.508Z,5.82
2023-01-29T12:53:50.691Z,4.70
2023-01-29T12:56:47.287Z,5.35
2023-01-29T12:59:36.513Z,5.40
2023-01-29T13:02:40.118Z,5.55
2023-01-29T13:05:19.510Z,4.82
2023-01-29T13:07:57.522Z,3.90
2023-01-29T13:10:38.455Z,4.43
2023-01-29T13:13:27.342Z,4.15
2023-01-29T13:15:56.858Z,4.60
2023-01-29T13:18:58.586Z,5.28
2023-01-29T13:21:35.011Z,5.05
2023-01-29T13:24:15.826Z,5.57
2023-01-29T13:26:48.605Z,3.47
2023-01-29T13:29:26.541Z,3.75
2023-01-29T13:32:01.048Z,3.50
2023-01-29T13:34:36.901Z,4.82
2023-01-29T13:37:17.724Z,4.00
2023-01-29T13:39:54.400Z,4.03
2023-01-29T13:42:47.009Z,4.38
2023-01-29T13:45:43.233Z,3.22
2023-01-29T13:48:28.561Z,4.10
2023-01-29T13:51:02.422Z,3.25
2023-01-29T13:53:40.062Z,5.00
2023-01-29T13:56:49.853Z,4.55
2023-01-29T13:59:51.922Z,5.45
2023-01-29T14:02:24.576Z,4.28
2023-01-29T14:05:14.156Z,5.13
2023-01-29T14:07:47.059Z,3.75
2023-01-29T14:10:20.717Z,4.57
2023-01-29T14:12:51.665Z,3.35
2023-01-29T14:15:25.046Z,3.75
2023-01-29T14:18:09.374Z,5.30
2023-01-29T14:20:51.994Z,3.42
2023-01-29T14:23:33.853Z,5.03
2023-01-29T14:26:17.856Z,5.35
2023-01-29T14:29:14.550Z,6.40
2023-01-29T14:31:59.912Z,6.22
2023-01-29T14:34:34.721Z,5.60
2023-01-29T14:37:16.947Z,5.65
2023-01-29T14:39:53.011Z,4.35
2023-01-29T14:42:44.027Z,5.53
2023-01-29T14:45:39.713Z,5.07
2023-01-29T14:48:10.137Z,4.43
2023-01-29T14:50:37.716Z,4.72
2023-01-29T14:53:29.918Z,4.60
2023-01-29T14:56:10.950Z,5.40
2023-01-29T14:58:49.765Z,4.57
2023-01-29T15:01:25.842Z,4.65
2023-01-29T15:04:30.626Z,4.70
2023-01-29T15:07:18.742Z,4.53
2023-01-29T15:10:22.758Z,5.07
2023-01-29T15:13:02.455Z,4.75
2023-01-29T15:15:51.274Z,5.35
2023-01-29T15:18:24.291Z,5.28
2023-01-29T15:21:05.794Z,5.30
2023-01-29T15:23:34.966Z,5.63
2023-01-29T15:26:08.722Z,5.53
2023-01-29T15:28:36.312Z,6.18
2023-01-29T15:31:12.257Z,6.30
2023-01-29T15:33:46.899Z,7.10
2023-01-29T15:36:31.005Z,6.93
2023-01-29T15:39:14.718Z,7.82
2023-01-29T15:41:43.989Z,7.50
2023-01-29T15:44:23.712Z,6.80
2023-01-29T15:46:59.292Z,6.80
2023-01-29T15:49:37.566Z,7.28
2023-01-29T15:52:09.296Z,6.60
2023-01-29T15:54:36.564Z,7.13
2023-01-29T15:57:04.146Z,7.00
2023-01-29T15:59:39.184Z,6.70
2023-01-29T16:02:34.157Z,6.43
2023-01-29T16:05:03.588Z,6.55
2023-01-29T16:07:31.751Z,6.53
2023-01-29T16:10:00.166Z,6.82
2023-01-29T16:12:28.989Z,7.00
2023-01-29T16:14:57.210Z,7.57
2023-01-29T16:17:37.050Z,7.28
2023-01-29T16:20:07.964Z,7.88
2023-01-29T16:22:39.109Z,7.85
2023-01-29T16:25:14.485Z,7.30
2023-01-29T16:27:44.315Z,7.53
2023-01-29T16:30:17.366Z,8.55
2023-01-29T16:32:44.887Z,7.85
2023-01-29T16:35:17.244Z,7.90
2023-01-29T16:37:50.859Z,8.00
2023-01-29T16:40:34.008Z,8.00
2023-01-29T16:43:28.389Z,7.78
2023-01-29T16:46:04.747Z,7.53
2023-01-29T16:48:34.766Z,7.55
2023-01-29T16:51:21.104Z,7.80
2023-01-29T16:54:18.149Z,7.45
2023-01-29T16:56:48.723Z,7.00
2023-01-29T16:59:34.607Z,7.30
2023-01-29T17:02:04.382Z,7.25
2023-01-29T17:04:33.002Z,7.57
2023-01-29T17:07:02.660Z,7.32
2023-01-29T17:09:37.764Z,7.13
2023-01-29T17:12:17.173Z,6.32
2023-01-29T17:14:58.920Z,7.50
2023-01-29T17:17:35.771Z,7.35
2023-01-29T17:20:14.973Z,7.05
2023-01-29T17:22:44.899Z,6.75
2023-01-29T17:25:17.156Z,7.18
2023-01-29T17:27:51.745Z,6.10
2023-01-29T17:30:23.792Z,7.60
2023-01-29T17:32:50.866Z,6.10
2023-01-29T17:35:18.959Z,7.95
2023-01-29T17:37:46.530Z,8.25
2023-01-29T17:40:57.508Z,8.18
2023-01-29T17:43:24.635Z,7.70
2023-01-29T17:45:51.889Z,7.82
2023-01-29T17:48:28.034Z,8.70
2023-01-29T17:51:04.507Z,8.45
2023-01-29T17:53:44.893Z,9.05
2023-01-29T17:56:23.398Z,8.05
2023-01-29T17:58:50.516Z,8.60
2023-01-29T18:01:17.826Z,8.85
2023-01-29T18:03:44.865Z,9.80
2023-01-29T18:06:27.212Z,9.18
2023-01-29T18:08:54.465Z,9.93
2023-01-29T18:11:21.814Z,9.93
2023-01-29T18:13:48.864Z,9.48
2023-01-29T18:16:18.207Z,9.57
2023-01-29T18:18:45.652Z,9.23
2023-01-29T18:21:12.859Z,9.40
2023-01-29T18:23:39.901Z,9.38
2023-01-29T18:26:10.052Z,8.88
2023-01-29T18:28:37.841Z,9.20
2023-01-29T18:31:06.603Z,8.95
2023-01-29T18:33:35.613Z,8.93
2023-01-29T18:36:06.697Z,10.02
2023-01-29T18:38:33.694Z,10.60
2023-01-29T18:41:11.878Z,10.13
2023-01-29T18:43:41.301Z,10.25
2023-01-29T18:46:09.356Z,10.02
2023-01-29T18:48:36.421Z,10.40
2023-01-29T18:51:03.855Z,9.98
2023-01-29T18:53:32.728Z,9.43
2023-01-29T18:56:04.651Z,9.25
2023-01-29T18:58:35.932Z,10.30
2023-01-29T19:01:09.399Z,10.57
2023-01-29T19:03:38.287Z,10.57
2023-01-29T19:06:08.561Z,10.57
2023-01-29T19:08:36.530Z,10.75
2023-01-29T19:11:07.965Z,9.75
2023-01-29T19:13:36.917Z,9.90
2023-01-29T19:16:11.070Z,9.52
2023-01-29T19:18:38.746Z,9.75
2023-01-29T19:21:09.999Z,9.40
2023-01-29T19:23:37.907Z,10.02
2023-01-29T19:26:06.054Z,9.65
2023-01-29T19:28:33.648Z,9.63
2023-01-29T19:31:01.444Z,10.38
2023-01-29T19:33:32.619Z,9.82
2023-01-29T19:36:00.426Z,10.75
2023-01-29T19:38:28.159Z,10.70
2023-01-29T19:40:56.022Z,11.13
2023-01-29T19:43:23.146Z,9.60
2023-01-29T19:45:59.499Z,10.05
2023-01-29T19:48:27.473Z,9.93
2023-01-29T19:50:57.384Z,10.02
2023-01-29T19:53:27.130Z,9.77
2023-01-29T19:56:04.869Z,9.93
2023-01-29T19:58:33.729Z,9.90
2023-01-29T20:01:14.354Z,10.25
2023-01-29T20:03:42.137Z,9.80
2023-01-29T20:06:09.734Z,10.35
2023-01-29T20:08:36.793Z,9.73
2023-01-29T20:11:05.632Z,9.88
2023-01-29T20:13:33.697Z,9.40
2023-01-29T20:16:05.641Z,9.30
2023-01-29T20:18:33.071Z,10.00
2023-01-29T20:21:08.189Z,9.10
2023-01-29T20:23:38.605Z,8.52
2023-01-29T20:26:15.248Z,8.27
2023-01-29T20:28:43.166Z,8.77
2023-01-29T20:31:10.467Z,8.32
2023-01-29T20:33:39.523Z,8.80
2023-01-29T20:36:10.995Z,9.60
2023-01-29T20:38:38.288Z,8.70
2023-01-29T20:41:13.991Z,9.50
2023-01-29T20:43:42.241Z,8.93
2023-01-29T20:46:10.283Z,9.23
2023-01-29T20:48:41.899Z,10.00
2023-01-29T20:51:16.191Z,9.35
2023-01-29T20:53:46.375Z,9.35
2023-01-29T20:56:17.286Z,8.90
2023-01-29T20:58:46.501Z,8.63
2023-01-29T21:01:20.179Z,8.93
2023-01-29T21:03:48.301Z,9.25
2023-01-29T21:06:16.166Z,8.50
2023-01-29T21:08:43.279Z,7.95
2023-01-29T21:11:11.120Z,8.80
2023-01-29T21:13:38.277Z,7.88
2023-01-29T21:16:06.238Z,8.30
2023-01-29T21:18:33.427Z,8.27
2023-01-29T21:21:00.735Z,8.70
2023-01-29T21:23:29.348Z,7.97
2023-01-29T21:26:06.564Z,8.45
2023-01-29T21:28:34.591Z,7.80
2023-01-29T21:31:10.315Z,7.68
2023-01-29T21:33:38.072Z,8.52
2023-01-29T21:36:06.144Z,7.90
2023-01-29T21:38:33.237Z,8.27
2023-01-29T21:41:06.540Z,8.32
2023-01-29T21:43:33.731Z,7.68
2023-01-29T21:46:05.037Z,8.10
2023-01-29T21:48:32.507Z,8.35
2023-01-29T21:50:59.864Z,8.10
2023-01-29T21:53:29.136Z,8.18
2023-01-29T21:56:04.441Z,8.25
2023-01-29T21:58:32.132Z,8.30
2023-01-29T22:01:36.725Z,8.30
2023-01-29T22:03:47.575Z,8.30
2023-01-29T22:06:15.536Z,8.85
2023-01-29T22:08:42.576Z,8.50
2023-01-29T22:11:10.458Z,8.18
2023-01-29T22:13:37.699Z,7.85
2023-01-29T22:16:05.906Z,7.90
2023-01-29T22:18:33.839Z,7.88
2023-01-29T22:21:02.904Z,7.90
2023-01-29T22:23:31.865Z,7.70
2023-01-29T22:26:07.275Z,7.75
2023-01-29T22:28:35.077Z,8.00
2023-01-29T22:31:04.481Z,8.75
2023-01-29T22:33:33.489Z,7.95
2023-01-29T22:36:03.528Z,7.93
2023-01-29T22:38:31.163Z,7.78
2023-01-29T22:41:00.611Z,7.70
2023-01-29T22:43:27.745Z,7.22
2023-01-29T22:45:56.426Z,7.70
2023-01-29T22:48:24.658Z,7.35
2023-01-29T22:51:12.265Z,7.95
2023-01-29T22:53:48.071Z,7.93
2023-01-29T22:56:15.870Z,8.32
2023-01-29T22:58:42.966Z,8.18
2023-01-29T23:01:11.134Z,7.78
2023-01-29T23:03:38.125Z,8.90
2023-01-29T23:06:06.380Z,7.68
2023-01-29T23:08:33.973Z,7.88
2023-01-29T23:11:15.277Z,7.65
2023-01-29T23:13:48.944Z,7.80
2023-01-29T23:16:18.317Z,7.95
2023-01-29T23:18:51.145Z,7.88
2023-01-29T23:21:19.642Z,8.23
2023-01-29T23:23:47.252Z,7.60
2023-01-29T23:26:34.140Z,7.55
2023-01-29T23:29:01.483Z,7.50
2023-01-29T23:31:28.705Z,7.53
2023-01-29T23:33:56.370Z,7.47
2023-01-29T23:36:23.528Z,7.97
2023-01-29T23:38:50.546Z,8.43
2023-01-29T23:41:17.769Z,8.68
2023-01-29T23:43:47.661Z,9.00
2023-01-29T23:46:14.907Z,8.43
2023-01-29T23:48:42.050Z,10.32
2023-01-29T23:51:10.675Z,9.70
2023-01-29T23:53:37.698Z,9.60
2023-01-29T23:56:06.090Z,9.88
2023-01-29T23:58:34.224Z,9.23
